Portscatho, United Kingdom
Current Conditions -  °F | °C
As of 8:50 AM on Friday 19 Dec 2014 (Local Time) from EGDR Reporting Station
Haze Haze  
Wind Chill: 44°   Ceiling: Unl
Heat Index: 48°   Visibility: 6mi
Dew Point: 43°   Wind: 9mph
Humidity: 82%   Direction: 290°WNW
Pressure: 30.06"   Gusts: NA
Location:  50.17°N, 4.97°W
Report Text: EGDR 190850Z 29008KT 9999 HZ FEW024 SCT034 09/06 Q1018 BLU TEMPO SCT020 WHT
Loading
Personal Weather Stations






























Interactive Weather Map New forecast layout! Learn more

10-Day Weather Forecast

Advertisements
Track Severe Weather on mobile